Time;durP1;ratioP1;P1;durP2;ratioP2;P2;SDS_P1;SDS_P2;PMS_P1;PMS_P2;Temp;Humidity;BMP_temperature;BMP_pressure;BME280_temperature;BME280_humidity;BME280_pressure;Samples;Min_cycle;Max_cycle;Signal;HPM_P1;HPM_P2
2021/12/13 00:02:09;;;;;;;4.18;3.88;;;17.10;58.80;;;;;;5052223;28;20266;-60
2021/12/13 00:04:42;;;;;;;4.03;3.72;;;17.10;58.80;;;;;;5052018;28;20171;-60
2021/12/13 00:07:19;;;;;;;4.60;4.10;;;17.10;58.80;;;;;;5051774;28;20175;-60
2021/12/13 00:09:48;;;;;;;5.45;3.78;;;17.00;58.80;;;;;;5052267;28;20194;-60
2021/12/13 00:12:21;;;;;;;4.47;3.63;;;17.00;58.80;;;;;;5050649;28;20669;-61
2021/12/13 00:14:51;;;;;;;4.50;4.10;;;17.00;58.80;;;;;;5051390;28;20296;-60
2021/12/13 00:17:20;;;;;;;4.05;3.67;;;17.10;58.80;;;;;;5050862;28;20198;-60
2021/12/13 00:19:57;;;;;;;3.60;3.30;;;17.00;58.80;;;;;;5050797;28;20175;-61
2021/12/13 00:22:32;;;;;;;4.07;3.78;;;17.00;58.80;;;;;;5049747;28;20265;-60
2021/12/13 00:25:02;;;;;;;3.55;3.25;;;17.00;58.80;;;;;;5050834;28;20264;-61
2021/12/13 00:27:27;;;;;;;4.47;4.13;;;17.00;58.80;;;;;;5050879;28;20175;-60
2021/12/13 00:30:10;;;;;;;4.45;4.10;;;17.00;58.80;;;;;;5050412;28;20183;-61
2021/12/13 00:33:02;;;;;;;4.20;3.83;;;17.00;58.80;;;;;;5050191;28;20241;-59
2021/12/13 00:35:36;;;;;;;4.18;3.70;;;17.00;58.80;;;;;;5049368;28;20215;-60
2021/12/13 00:38:03;;;;;;;4.47;4.07;;;17.00;58.80;;;;;;5051710;28;20243;-61
2021/12/13 00:40:49;;;;;;;4.43;3.47;;;17.00;58.90;;;;;;5051433;28;20532;-60
2021/12/13 00:43:35;;;;;;;3.90;3.60;;;16.90;59.40;;;;;;5051076;28;20178;-60
2021/12/13 00:46:05;;;;;;;4.15;3.85;;;17.00;58.80;;;;;;5051784;28;20634;-60
2021/12/13 00:48:31;;;;;;;3.75;3.45;;;17.00;58.90;;;;;;5050885;28;20586;-59
2021/12/13 00:51:17;;;;;;;4.03;3.63;;;16.90;58.80;;;;;;5051664;28;20206;-59
2021/12/13 00:53:44;;;;;;;4.30;3.95;;;16.90;58.80;;;;;;5051117;28;20234;-60
2021/12/13 00:56:42;;;;;;;4.15;3.78;;;16.90;58.80;;;;;;5050971;28;20174;-60
2021/12/13 00:59:08;;;;;;;3.85;3.60;;;16.90;58.90;;;;;;5032431;28;20647;-60
2021/12/13 01:01:34;;;;;;;4.68;3.65;;;16.90;58.90;;;;;;5050001;28;20175;-61
2021/12/13 01:03:59;;;;;;;4.22;3.92;;;16.90;58.90;;;;;;5049862;28;20622;-60
2021/12/13 01:07:03;;;;;;;3.75;3.45;;;16.90;58.90;;;;;;5049757;28;20179;-59
2021/12/13 01:10:06;;;;;;;3.83;3.53;;;16.90;58.90;;;;;;5051492;28;20600;-59
2021/12/13 01:12:31;;;;;;;3.78;3.40;;;16.90;58.90;;;;;;5051232;28;20214;-60
2021/12/13 01:15:05;;;;;;;3.90;3.47;;;16.90;58.90;;;;;;5051492;28;20240;-60
2021/12/13 01:17:56;;;;;;;3.95;3.65;;;16.90;58.90;;;;;;5050447;28;20194;-60
2021/12/13 01:20:56;;;;;;;3.97;3.42;;;16.80;58.80;;;;;;5051217;28;20266;-60
2021/12/13 01:23:38;;;;;;;3.95;3.65;;;16.90;58.90;;;;;;5050196;28;20203;-59
2021/12/13 01:26:25;;;;;;;3.78;3.47;;;16.90;58.90;;;;;;5049540;28;20262;-59
2021/12/13 01:28:52;;;;;;;3.97;3.60;;;16.80;58.80;;;;;;5050352;28;20210;-60
2021/12/13 01:31:33;;;;;;;3.97;3.63;;;16.80;58.80;;;;;;5050426;28;20234;-60
2021/12/13 01:33:59;;;;;;;3.88;3.67;;;16.80;58.80;;;;;;5051291;28;20178;-59
2021/12/13 01:36:29;;;;;;;3.47;3.28;;;16.80;58.80;;;;;;5050968;28;20324;-60
2021/12/13 01:39:02;;;;;;;3.55;3.25;;;16.80;58.90;;;;;;5050852;28;20179;-60
2021/12/13 01:41:55;;;;;;;3.88;3.55;;;16.80;58.90;;;;;;5050711;28;20660;-60
2021/12/13 01:44:24;;;;;;;3.53;3.22;;;16.80;58.90;;;;;;5050849;28;20183;-60
2021/12/13 01:46:54;;;;;;;3.60;3.40;;;16.80;58.90;;;;;;5050292;28;20231;-60
2021/12/13 01:49:27;;;;;;;3.67;3.45;;;16.80;58.90;;;;;;5050964;28;20262;-60
2021/12/13 01:51:53;;;;;;;3.60;3.30;;;16.80;58.90;;;;;;5050349;28;20284;-60
2021/12/13 01:54:20;;;;;;;3.47;3.17;;;16.80;58.90;;;;;;5053003;28;20694;-60
2021/12/13 01:56:58;;;;;;;3.63;3.33;;;16.80;58.90;;;;;;5054590;28;20183;-60
2021/12/13 02:02:12;;;;;;;3.67;3.38;;;16.70;58.80;;;;;;5054651;28;20309;-60
2021/12/13 02:04:38;;;;;;;3.90;3.60;;;16.70;58.90;;;;;;5054182;28;20530;-61
2021/12/13 02:07:03;;;;;;;3.67;3.38;;;16.70;58.80;;;;;;5053681;28;20228;-60
2021/12/13 02:09:32;;;;;;;3.55;3.25;;;16.70;58.90;;;;;;5053958;28;20179;-60
2021/12/13 02:11:59;;;;;;;3.90;3.60;;;16.70;58.80;;;;;;5054436;28;20214;-60
2021/12/13 02:14:29;;;;;;;3.83;3.53;;;16.70;58.90;;;;;;5053066;28;20540;-60
2021/12/13 02:17:10;;;;;;;4.03;3.72;;;16.70;58.80;;;;;;5054462;28;20203;-60
2021/12/13 02:19:45;;;;;;;3.60;3.30;;;16.70;58.90;;;;;;5053930;28;20175;-61
2021/12/13 02:22:30;;;;;;;3.90;3.60;;;16.70;58.90;;;;;;5053269;28;20182;-60
2021/12/13 02:24:59;;;;;;;3.60;3.30;;;16.70;58.80;;;;;;5054164;28;20179;-60
2021/12/13 02:27:27;;;;;;;3.70;3.40;;;16.60;58.80;;;;;;5052960;28;20182;-61
2021/12/13 02:29:54;;;;;;;3.05;2.85;;;16.70;58.80;;;;;;5054144;28;20182;-60
2021/12/13 02:32:20;;;;;;;3.40;3.10;;;16.70;58.90;;;;;;5053478;28;20214;-60
2021/12/13 02:34:45;;;;;;;4.00;3.70;;;16.70;58.90;;;;;;5053058;28;20563;-60
2021/12/13 02:37:11;;;;;;;3.70;3.30;;;16.70;58.90;;;;;;5053798;28;20304;-60
2021/12/13 02:39:56;;;;;;;4.07;3.75;;;16.60;58.80;;;;;;5053542;28;20174;-60
2021/12/13 02:42:21;;;;;;;3.65;3.35;;;17.00;59.00;;;;;;5053000;28;20543;-61
2021/12/13 02:44:50;;;;;;;3.63;3.40;;;16.60;58.80;;;;;;5053646;28;20622;-61
2021/12/13 02:47:25;;;;;;;3.72;3.42;;;16.60;58.90;;;;;;5053855;28;20250;-61
2021/12/13 02:49:50;;;;;;;3.80;3.50;;;16.60;58.80;;;;;;5052773;28;20178;-59
2021/12/13 02:52:17;;;;;;;4.45;3.65;;;16.60;58.80;;;;;;5053314;28;20222;-60
2021/12/13 02:54:45;;;;;;;4.03;3.65;;;16.60;58.90;;;;;;5053105;28;20231;-60
2021/12/13 02:57:15;;;;;;;3.95;3.30;;;16.60;58.80;;;;;;5052851;28;20187;-61
2021/12/13 02:59:44;;;;;;;4.10;3.80;;;16.60;58.90;;;;;;5052953;28;20555;-61
2021/12/13 03:02:14;;;;;;;3.20;3.00;;;16.60;58.90;;;;;;5052711;28;20637;-60
2021/12/13 03:04:40;;;;;;;3.88;3.58;;;16.60;58.90;;;;;;5051999;28;20652;-60
2021/12/13 03:07:16;;;;;;;3.90;3.50;;;16.60;58.80;;;;;;5053082;28;20182;-60
2021/12/13 03:09:42;;;;;;;4.25;3.95;;;16.60;58.80;;;;;;5052320;28;20232;-60
2021/12/13 03:12:11;;;;;;;3.58;3.28;;;16.60;58.90;;;;;;5053040;28;20306;-60
2021/12/13 03:14:40;;;;;;;3.33;3.13;;;16.60;58.90;;;;;;5052921;28;20172;-60
2021/12/13 03:17:14;;;;;;;3.65;3.35;;;16.60;58.90;;;;;;5052475;28;20262;-61
2021/12/13 03:19:42;;;;;;;3.75;3.45;;;16.60;58.90;;;;;;5051386;28;20190;-61
2021/12/13 03:22:30;;;;;;;3.30;3.10;;;16.60;58.90;;;;;;5053073;28;20198;-61
2021/12/13 03:25:16;;;;;;;3.92;3.63;;;16.60;58.90;;;;;;5052019;28;20638;-60
2021/12/13 03:27:50;;;;;;;3.90;3.60;;;16.50;58.90;;;;;;5052522;28;20543;-60
2021/12/13 03:30:28;;;;;;;3.70;3.40;;;16.50;58.80;;;;;;5051291;28;20201;-59
2021/12/13 03:33:01;;;;;;;3.70;3.50;;;16.50;58.80;;;;;;5052624;28;20199;-60
2021/12/13 03:35:35;;;;;;;3.58;3.38;;;16.50;58.80;;;;;;5052390;28;20639;-60
2021/12/13 03:38:05;;;;;;;3.88;3.55;;;16.50;58.90;;;;;;5052096;28;20238;-60
2021/12/13 03:40:31;;;;;;;3.60;3.30;;;16.50;58.90;;;;;;5052561;28;20206;-60
2021/12/13 03:42:59;;;;;;;3.50;3.20;;;16.50;58.80;;;;;;5052637;28;20589;-60
2021/12/13 03:45:34;;;;;;;3.38;3.10;;;16.50;58.80;;;;;;5051413;28;20178;-61
2021/12/13 03:48:02;;;;;;;4.00;3.70;;;16.50;58.90;;;;;;5052681;28;20179;-61
2021/12/13 03:50:35;;;;;;;3.30;3.10;;;16.50;58.80;;;;;;5052389;28;20171;-60
2021/12/13 03:53:03;;;;;;;3.20;2.97;;;16.50;58.90;;;;;;5051618;28;20288;-61
2021/12/13 03:55:30;;;;;;;4.10;3.50;;;16.50;58.90;;;;;;5052047;28;20175;-61
2021/12/13 03:58:00;;;;;;;3.88;3.58;;;16.50;58.90;;;;;;5052421;28;20179;-61
2021/12/13 04:00:29;;;;;;;3.80;3.50;;;16.50;58.90;;;;;;5051392;28;20175;-62
2021/12/13 04:02:57;;;;;;;3.13;2.92;;;16.50;58.90;;;;;;5052515;28;20245;-61
2021/12/13 04:05:23;;;;;;;3.00;2.80;;;16.50;58.90;;;;;;5051985;28;20175;-61
2021/12/13 04:07:52;;;;;;;3.60;3.30;;;16.50;58.80;;;;;;5051449;28;20325;-60
2021/12/13 04:10:19;;;;;;;3.35;3.15;;;16.40;58.80;;;;;;5052277;28;20187;-60
2021/12/13 04:12:48;;;;;;;4.60;3.40;;;16.50;58.90;;;;;;5051405;28;20276;-60
2021/12/13 04:15:27;;;;;;;3.45;3.25;;;16.40;58.80;;;;;;5052474;28;20192;-60
2021/12/13 04:18:12;;;;;;;3.38;3.10;;;16.40;58.80;;;;;;5051922;28;20171;-61
2021/12/13 04:20:39;;;;;;;3.47;3.17;;;16.40;58.80;;;;;;5051092;28;20266;-60
2021/12/13 04:23:09;;;;;;;3.20;3.00;;;16.40;58.80;;;;;;5051851;28;20263;-60
2021/12/13 04:25:37;;;;;;;3.40;3.20;;;16.40;58.80;;;;;;5051445;28;20663;-60
2021/12/13 04:28:09;;;;;;;3.80;3.42;;;16.40;58.80;;;;;;5051179;28;20630;-60
2021/12/13 04:30:56;;;;;;;3.20;2.90;;;16.40;58.80;;;;;;5051469;28;20266;-60
2021/12/13 04:33:27;;;;;;;3.45;3.25;;;16.40;58.80;;;;;;5051267;28;20178;-61
2021/12/13 04:35:56;;;;;;;3.05;2.85;;;16.40;58.80;;;;;;5051329;28;20272;-59
2021/12/13 04:38:25;;;;;;;3.22;3.03;;;16.40;58.80;;;;;;5051642;28;20201;-61
2021/12/13 04:40:51;;;;;;;3.80;3.50;;;16.40;59.50;;;;;;5049882;28;20179;-60
2021/12/13 04:43:17;;;;;;;3.47;3.17;;;16.40;58.80;;;;;;5051789;28;20656;-61
2021/12/13 04:45:52;;;;;;;3.30;3.00;;;16.40;58.80;;;;;;5051286;28;20564;-61
2021/12/13 04:48:23;;;;;;;3.38;3.17;;;16.40;58.80;;;;;;5051368;28;20236;-61
2021/12/13 04:51:02;;;;;;;3.60;3.38;;;16.40;58.80;;;;;;5051688;28;20316;-60
2021/12/13 04:53:32;;;;;;;4.00;3.70;;;16.30;58.80;;;;;;5051217;28;20740;-61
2021/12/13 04:56:00;;;;;;;3.58;3.30;;;16.30;58.80;;;;;;5051015;28;20179;-62
2021/12/13 04:58:26;;;;;;;3.25;3.05;;;16.30;58.80;;;;;;5051216;28;20182;-62
2021/12/13 05:00:54;;;;;;;3.13;2.92;;;16.30;58.80;;;;;;5051946;28;20175;-61
2021/12/13 05:03:26;;;;;;;3.45;3.20;;;16.30;58.80;;;;;;5051034;28;20171;-61
2021/12/13 05:05:51;;;;;;;3.25;2.97;;;16.30;58.80;;;;;;5051853;28;20179;-60
2021/12/13 05:08:17;;;;;;;3.22;2.97;;;16.30;58.80;;;;;;5051567;28;20633;-60
2021/12/13 05:10:46;;;;;;;4.03;3.67;;;16.30;58.80;;;;;;5050316;28;20184;-61
2021/12/13 05:13:20;;;;;;;3.05;2.85;;;16.30;58.80;;;;;;5051727;28;20237;-61
2021/12/13 05:15:56;;;;;;;3.75;3.45;;;16.30;58.80;;;;;;5051372;28;20178;-61
2021/12/13 05:18:31;;;;;;;3.05;2.85;;;16.30;58.80;;;;;;5051293;28;20179;-61
2021/12/13 05:21:02;;;;;;;2.97;2.75;;;16.30;58.80;;;;;;5051438;28;20626;-60
2021/12/13 05:23:28;;;;;;;3.65;3.40;;;16.30;58.80;;;;;;5050067;28;20556;-61
2021/12/13 05:25:59;;;;;;;3.45;3.22;;;16.30;58.80;;;;;;5050193;28;20182;-61
2021/12/13 05:28:30;;;;;;;3.92;3.63;;;16.30;58.80;;;;;;5052135;28;20265;-60
2021/12/13 05:31:02;;;;;;;3.30;3.03;;;16.30;58.80;;;;;;5053093;28;20242;-60
2021/12/13 05:33:34;;;;;;;3.17;2.97;;;16.30;58.80;;;;;;5054875;28;20562;-60
2021/12/13 05:36:01;;;;;;;3.55;3.22;;;16.30;58.80;;;;;;5054873;28;20175;-60
2021/12/13 05:38:32;;;;;;;3.25;3.05;;;16.30;58.80;;;;;;5054196;28;20178;-61
2021/12/13 05:40:59;;;;;;;2.95;2.75;;;16.30;58.90;;;;;;5055035;28;20186;-61
2021/12/13 05:43:28;;;;;;;2.95;2.72;;;16.30;58.90;;;;;;5054634;28;20179;-61
2021/12/13 05:46:17;;;;;;;3.40;3.17;;;16.30;58.80;;;;;;5054003;28;20175;-60
2021/12/13 05:49:02;;;;;;;3.20;3.00;;;16.20;58.90;;;;;;5054107;28;20194;-61
2021/12/13 05:51:37;;;;;;;3.30;3.00;;;16.20;58.80;;;;;;5053771;28;20209;-60
2021/12/13 05:54:17;;;;;;;3.35;3.10;;;16.30;58.80;;;;;;5054372;28;20222;-60
2021/12/13 05:56:48;;;;;;;3.25;3.05;;;16.20;58.80;;;;;;5054157;28;20182;-61
2021/12/13 05:59:37;;;;;;;3.40;3.13;;;16.20;58.80;;;;;;5054009;28;20190;-61
2021/12/13 06:02:04;;;;;;;3.40;3.15;;;16.20;58.80;;;;;;5051363;28;20645;-61
2021/12/13 06:04:34;;;;;;;3.60;3.30;;;16.20;58.80;;;;;;5054140;28;20171;-61
2021/12/13 06:07:00;;;;;;;2.95;2.75;;;16.20;58.80;;;;;;5053786;28;20183;-60
2021/12/13 06:09:43;;;;;;;3.20;3.00;;;16.20;58.80;;;;;;5054078;28;20198;-60
2021/12/13 06:12:11;;;;;;;3.28;3.08;;;16.20;58.80;;;;;;5053746;28;20218;-61
2021/12/13 06:14:37;;;;;;;3.78;3.47;;;16.20;58.80;;;;;;5054161;28;20179;-61
2021/12/13 06:17:21;;;;;;;3.38;3.13;;;16.20;58.80;;;;;;5054287;28;20175;-61
2021/12/13 06:19:59;;;;;;;3.70;3.40;;;16.20;58.80;;;;;;5052674;28;20159;-61
2021/12/13 06:22:26;;;;;;;3.05;2.85;;;16.20;58.80;;;;;;5054129;28;20182;-61
2021/12/13 06:24:53;;;;;;;3.38;3.17;;;16.20;58.80;;;;;;5054219;28;20179;-61
2021/12/13 06:27:38;;;;;;;3.30;3.10;;;16.20;58.80;;;;;;5053331;28;20179;-61
2021/12/13 06:30:20;;;;;;;3.20;3.00;;;16.20;58.80;;;;;;5053917;28;20175;-61
2021/12/13 06:32:58;;;;;;;3.70;3.40;;;16.20;58.80;;;;;;5054079;28;20260;-61
2021/12/13 06:35:47;;;;;;;3.35;3.08;;;16.10;58.80;;;;;;5053055;28;20204;-61
2021/12/13 06:38:19;;;;;;;3.10;2.90;;;16.10;58.80;;;;;;5053786;28;20217;-60
2021/12/13 06:41:04;;;;;;;2.95;2.75;;;16.10;58.80;;;;;;5052988;28;20183;-60
2021/12/13 06:43:57;;;;;;;3.05;2.85;;;16.10;58.80;;;;;;5053721;28;20254;-61
2021/12/13 06:46:22;;;;;;;2.75;2.55;;;16.10;58.80;;;;;;5053328;28;20179;-61
2021/12/13 06:48:54;;;;;;;3.00;2.80;;;16.10;58.80;;;;;;5052933;28;20194;-61
2021/12/13 06:51:20;;;;;;;3.10;2.90;;;16.10;58.80;;;;;;5053603;28;20242;-61
2021/12/13 06:54:02;;;;;;;3.10;2.90;;;16.10;58.80;;;;;;5053537;28;20231;-59
2021/12/13 06:56:29;;;;;;;3.03;2.83;;;16.10;58.90;;;;;;5052513;28;20179;-60
2021/12/13 06:58:58;;;;;;;2.75;2.55;;;16.10;58.80;;;;;;5053369;28;20190;-60
2021/12/13 07:01:26;;;;;;;2.97;2.78;;;16.10;58.80;;;;;;5052332;28;20258;-60
2021/12/13 07:03:58;;;;;;;3.42;3.13;;;16.10;58.80;;;;;;5053392;28;20229;-60
2021/12/13 07:06:24;;;;;;;2.50;2.40;;;16.10;58.80;;;;;;5053018;28;20593;-59
2021/12/13 07:09:19;;;;;;;3.05;2.85;;;16.20;58.80;;;;;;5052595;28;20261;-60
2021/12/13 07:11:56;;;;;;;2.88;2.67;;;16.20;58.80;;;;;;5053126;28;20207;-61
2021/12/13 07:14:36;;;;;;;3.75;2.67;;;16.30;58.80;;;;;;5053191;28;20210;-61
2021/12/13 07:17:11;;;;;;;2.70;2.50;;;16.40;58.70;;;;;;5052661;28;20182;-60
2021/12/13 07:19:38;;;;;;;2.90;2.70;;;16.50;58.50;;;;;;5052850;28;20174;-61
2021/12/13 07:22:05;;;;;;;2.50;2.30;;;16.60;58.40;;;;;;5051794;28;20183;-61
2021/12/13 07:24:44;;;;;;;2.08;1.98;;;16.70;58.30;;;;;;5052047;28;20178;-59
2021/12/13 07:27:13;;;;;;;2.65;2.45;;;16.80;58.00;;;;;;5053144;28;20205;-60
2021/12/13 07:29:59;;;;;;;2.50;2.30;;;16.90;57.90;;;;;;5052086;28;20171;-60
2021/12/13 07:32:29;;;;;;;2.35;2.25;;;17.00;57.70;;;;;;5052357;28;20217;-61
2021/12/13 07:35:03;;;;;;;1.92;1.83;;;17.20;57.60;;;;;;5053093;28;20182;-60
2021/12/13 07:37:33;;;;;;;2.10;2.00;;;17.50;57.10;;;;;;5051745;28;20228;-61
2021/12/13 07:40:36;;;;;;;2.08;1.98;;;17.90;56.40;;;;;;5052767;28;20242;-60
2021/12/13 07:43:07;;;;;;;1.92;1.83;;;18.30;55.50;;;;;;5052641;28;20532;-62
2021/12/13 07:45:50;;;;;;;2.10;2.00;;;18.50;55.10;;;;;;5051767;28;20171;-60
2021/12/13 07:48:21;;;;;;;1.80;1.70;;;18.70;55.40;;;;;;5052607;28;20230;-60
2021/12/13 07:51:16;;;;;;;2.70;2.50;;;18.90;54.50;;;;;;5051197;28;20210;-60
2021/12/13 07:53:42;;;;;;;1.90;1.80;;;19.00;54.40;;;;;;5052223;28;20226;-61
2021/12/13 07:56:10;;;;;;;2.28;2.08;;;19.00;54.30;;;;;;5052671;28;20532;-60
2021/12/13 07:58:38;;;;;;;2.28;2.10;;;19.10;54.20;;;;;;5051550;28;20190;-61
2021/12/13 08:01:12;;;;;;;1.80;1.70;;;19.10;54.20;;;;;;5052348;28;20611;-67
2021/12/13 08:03:47;;;;;;;2.28;1.70;;;19.10;54.40;;;;;;5052029;28;20198;-67
2021/12/13 08:06:12;;;;;;;1.83;1.73;;;19.10;54.40;;;;;;5051745;28;20261;-68
2021/12/13 08:08:49;;;;;;;1.85;1.75;;;19.10;54.40;;;;;;5051848;28;20213;-67
2021/12/13 08:11:14;;;;;;;1.67;1.58;;;18.90;54.60;;;;;;5051910;28;20202;-66
2021/12/13 08:13:40;;;;;;;1.85;1.75;;;18.90;54.80;;;;;;5050943;28;20179;-66
2021/12/13 08:16:07;;;;;;;1.50;1.40;;;18.70;55.30;;;;;;5050497;28;20187;-66
2021/12/13 08:18:39;;;;;;;2.30;2.10;;;18.70;55.10;;;;;;5051518;28;20187;-65
2021/12/13 08:21:08;;;;;;;2.20;2.03;;;18.70;55.30;;;;;;5052018;28;20185;-66
2021/12/13 08:23:48;;;;;;;1.70;1.60;;;18.70;55.30;;;;;;5051668;28;20168;-65
2021/12/13 08:26:17;;;;;;;1.70;1.60;;;18.60;55.30;;;;;;5051224;28;20175;-66
2021/12/13 08:28:45;;;;;;;1.83;1.73;;;18.60;55.30;;;;;;5051305;28;20240;-65
2021/12/13 08:31:21;;;;;;;1.73;1.63;;;18.70;55.30;;;;;;5051960;28;20296;-67
2021/12/13 08:33:53;;;;;;;1.58;1.48;;;18.70;55.30;;;;;;5049876;28;20603;-66
2021/12/13 08:36:24;;;;;;;1.83;1.73;;;18.70;55.40;;;;;;5051754;28;20259;-67
2021/12/13 08:39:17;;;;;;;1.92;1.83;;;18.70;55.60;;;;;;5051675;28;20502;-65
2021/12/13 08:41:50;;;;;;;2.05;1.95;;;18.70;55.70;;;;;;5050878;28;20261;-65
2021/12/13 08:44:21;;;;;;;1.70;1.60;;;18.60;55.90;;;;;;5051689;28;20201;-65
2021/12/13 08:46:57;;;;;;;2.53;1.95;;;18.50;56.20;;;;;;5051120;28;20626;-63
2021/12/13 08:49:53;;;;;;;2.45;1.83;;;18.50;56.30;;;;;;5051322;28;20178;-64
2021/12/13 08:52:27;;;;;;;3.88;2.10;;;18.30;56.80;;;;;;5046823;28;20673;-64
2021/12/13 08:55:11;;;;;;;3.65;2.17;;;18.30;57.10;;;;;;5051180;28;20245;-63
2021/12/13 08:57:42;;;;;;;3.83;2.33;;;18.30;57.40;;;;;;5051116;28;20261;-63
2021/12/13 09:00:42;;;;;;;3.15;2.17;;;18.30;57.60;;;;;;5051244;28;20579;-64
2021/12/13 09:03:15;;;;;;;3.88;2.10;;;18.30;57.60;;;;;;5051115;28;20656;-64
2021/12/13 09:05:56;;;;;;;2.92;2.30;;;18.30;57.60;;;;;;5055291;28;20612;-64
2021/12/13 09:08:36;;;;;;;3.85;2.42;;;18.30;57.60;;;;;;5054548;28;20664;-64
2021/12/13 09:11:18;;;;;;;3.53;2.38;;;18.40;57.60;;;;;;5055197;28;20219;-63
2021/12/13 09:14:13;;;;;;;3.55;2.42;;;18.40;57.60;;;;;;5055354;28;20656;-62
2021/12/13 09:17:07;;;;;;;5.13;2.45;;;18.40;57.60;;;;;;5053318;28;20210;-62
2021/12/13 09:19:36;;;;;;;3.60;2.70;;;18.30;57.80;;;;;;5055200;28;20206;-62
2021/12/13 09:22:13;;;;;;;4.85;2.55;;;18.20;57.90;;;;;;5054644;28;20598;-62
2021/12/13 09:24:42;;;;;;;3.78;2.50;;;18.10;58.10;;;;;;5054990;28;20187;-62
2021/12/13 09:27:33;;;;;;;3.72;2.38;;;18.10;58.30;;;;;;5055049;28;20282;-62
2021/12/13 09:30:24;;;;;;;3.80;2.15;;;18.10;58.40;;;;;;5054546;28;20167;-63
2021/12/13 09:32:59;;;;;;;3.00;2.22;;;18.10;58.40;;;;;;5052189;28;20234;-63
2021/12/13 09:35:32;;;;;;;3.53;1.95;;;18.10;58.40;;;;;;5054592;28;20187;-64
2021/12/13 09:38:28;;;;;;;3.42;2.10;;;18.10;58.30;;;;;;5054158;28;20175;-64
2021/12/13 09:41:03;;;;;;;2.30;2.03;;;18.20;58.30;;;;;;5047094;28;20229;-64
2021/12/13 09:43:49;;;;;;;2.90;2.70;;;18.20;58.30;;;;;;5054024;28;20190;-63
2021/12/13 09:46:35;;;;;;;2.40;2.20;;;18.30;58.20;;;;;;5055125;28;20189;-63
2021/12/13 09:49:12;;;;;;;2.70;2.50;;;18.30;58.20;;;;;;5054829;28;20171;-63
2021/12/13 09:51:51;;;;;;;3.97;2.08;;;18.40;58.10;;;;;;5053631;28;20329;-63
2021/12/13 09:54:19;;;;;;;5.78;2.60;;;18.40;58.00;;;;;;5054465;28;20226;-63
2021/12/13 09:56:49;;;;;;;2.83;2.42;;;18.40;57.90;;;;;;5054758;28;20171;-63
2021/12/13 09:59:25;;;;;;;4.05;2.60;;;18.30;57.80;;;;;;5053916;28;20420;-63
2021/12/13 10:01:51;;;;;;;2.22;2.03;;;18.40;57.90;;;;;;5054387;28;20174;-63
2021/12/13 10:04:25;;;;;;;2.10;1.80;;;18.40;58.20;;;;;;5053447;28;20175;-63
2021/12/13 10:06:53;;;;;;;3.22;2.10;;;18.30;58.20;;;;;;5054528;28;20629;-63
2021/12/13 10:09:21;;;;;;;3.33;2.20;;;18.20;58.40;;;;;;5054288;28;20186;-62
2021/12/13 10:12:15;;;;;;;3.45;2.28;;;18.20;58.50;;;;;;5053709;28;20223;-62
2021/12/13 10:14:47;;;;;;;2.83;2.00;;;18.10;58.50;;;;;;5052433;28;20629;-61
2021/12/13 10:17:13;;;;;;;3.03;1.95;;;18.20;58.60;;;;;;5054079;28;20191;-62
2021/12/13 10:19:41;;;;;;;4.00;2.15;;;18.20;58.50;;;;;;5052951;28;20586;-67
2021/12/13 10:22:08;;;;;;;2.80;2.30;;;18.20;58.40;;;;;;5054072;28;20183;-64
2021/12/13 10:24:36;;;;;;;3.85;2.30;;;18.30;58.40;;;;;;5053690;28;20176;-64
2021/12/13 10:27:04;;;;;;;4.68;2.17;;;18.40;58.30;;;;;;5053140;28;20186;-63
2021/12/13 10:29:30;;;;;;;3.55;2.00;;;18.50;58.20;;;;;;5053580;28;20233;-64
2021/12/13 10:32:01;;;;;;;2.22;2.00;;;18.50;58.10;;;;;;5053640;28;20641;-65
2021/12/13 10:34:29;;;;;;;2.10;1.90;;;18.40;58.10;;;;;;5052792;28;20709;-64
2021/12/13 10:37:10;;;;;;;3.90;2.00;;;18.40;58.20;;;;;;5053790;28;20273;-66
2021/12/13 10:39:41;;;;;;;3.30;2.17;;;18.40;58.20;;;;;;5052735;28;20178;-64
2021/12/13 10:42:10;;;;;;;2.45;2.13;;;18.30;58.50;;;;;;5053495;28;20627;-64
2021/12/13 10:44:38;;;;;;;3.10;1.98;;;18.20;58.50;;;;;;5053237;28;20596;-64
2021/12/13 10:47:06;;;;;;;3.78;2.17;;;18.20;58.50;;;;;;5052805;28;20186;-64
2021/12/13 10:49:34;;;;;;;2.35;1.70;;;18.30;58.60;;;;;;5053236;28;20186;-64
2021/12/13 10:52:25;;;;;;;3.50;1.90;;;18.30;58.50;;;;;;5053437;28;20203;-64
2021/12/13 10:54:53;;;;;;;1.90;1.55;;;18.40;58.30;;;;;;5052507;28;20219;-64
2021/12/13 10:57:43;;;;;;;2.20;1.80;;;18.40;58.20;;;;;;5053292;28;20240;-64
2021/12/13 11:00:30;;;;;;;3.03;1.70;;;18.30;58.30;;;;;;5050172;28;20179;-65
2021/12/13 11:03:09;;;;;;;3.33;2.20;;;18.30;58.40;;;;;;5053152;28;20178;-66
2021/12/13 11:05:35;;;;;;;3.17;2.03;;;18.30;58.50;;;;;;5052945;28;20258;-66
2021/12/13 11:08:00;;;;;;;1.95;1.70;;;18.20;58.70;;;;;;5052550;28;20639;-65
2021/12/13 11:10:34;;;;;;;2.88;2.15;;;18.20;58.80;;;;;;5052950;28;20205;-74
2021/12/13 11:13:00;;;;;;;2.40;1.70;;;18.20;58.80;;;;;;5052937;28;20226;-65
2021/12/13 11:15:29;;;;;;;3.22;2.03;;;18.30;58.80;;;;;;5051929;28;20171;-64
2021/12/13 11:17:55;;;;;;;2.00;1.50;;;18.20;58.70;;;;;;5053189;28;20179;-66
2021/12/13 11:20:41;;;;;;;2.83;1.95;;;18.20;58.60;;;;;;5052773;28;20220;-66
2021/12/13 11:23:06;;;;;;;2.50;1.58;;;18.20;58.60;;;;;;5052317;28;20175;-65
2021/12/13 11:25:41;;;;;;;1.45;1.35;;;18.20;58.70;;;;;;5051992;28;20550;-64
2021/12/13 11:28:07;;;;;;;2.88;1.85;;;18.20;58.90;;;;;;5052636;28;20659;-66
2021/12/13 11:30:33;;;;;;;2.25;1.65;;;18.20;58.90;;;;;;5052002;28;20179;-67
2021/12/13 11:32:59;;;;;;;2.65;1.80;;;18.10;59.00;;;;;;5052660;28;20223;-67
2021/12/13 11:35:43;;;;;;;4.28;1.55;;;18.00;59.00;;;;;;5052376;28;20320;-67
2021/12/13 11:38:46;;;;;;;2.20;1.80;;;18.00;59.10;;;;;;5052683;28;20182;-67
2021/12/13 11:41:36;;;;;;;2.08;1.50;;;18.10;59.10;;;;;;5052985;28;20174;-69
2021/12/13 11:44:36;;;;;;;2.08;1.88;;;18.10;59.00;;;;;;5051980;28;20547;-68
2021/12/13 11:47:36;;;;;;;2.92;1.83;;;18.10;58.90;;;;;;5069379;28;20542;-68
2021/12/13 11:50:44;;;;;;;3.83;1.85;;;18.20;58.90;;;;;;5067513;28;20229;-70
2021/12/13 11:53:47;;;;;;;5.00;2.33;;;18.00;59.00;;;;;;5069040;28;20620;-67
2021/12/13 11:56:27;;;;;;;3.92;2.00;;;18.00;59.10;;;;;;5068895;28;20177;-66
2021/12/13 11:59:30;;;;;;;2.22;1.80;;;18.00;59.20;;;;;;5068173;28;20321;-67
2021/12/13 12:02:19;;;;;;;4.25;1.90;;;18.00;59.20;;;;;;5069201;28;20220;-67
2021/12/13 12:05:21;;;;;;;3.72;2.10;;;17.90;59.20;;;;;;5068089;28;20175;-69
2021/12/13 12:08:25;;;;;;;5.03;2.25;;;17.90;59.30;;;;;;5068038;28;20547;-67
2021/12/13 12:11:02;;;;;;;4.05;1.92;;;17.90;59.40;;;;;;5067984;28;20177;-67
2021/12/13 12:14:02;;;;;;;3.08;1.90;;;17.80;59.40;;;;;;5068368;28;20174;-65
2021/12/13 12:16:28;;;;;;;6.25;2.55;;;17.80;59.60;;;;;;5068528;28;20278;-65
2021/12/13 12:18:56;;;;;;;4.20;2.72;;;17.80;60.20;;;;;;5068322;28;20296;-64
2021/12/13 12:21:39;;;;;;;7.55;3.05;;;17.70;60.10;;;;;;5068372;28;20498;-65
2021/12/13 12:24:09;;;;;;;5.45;3.25;;;17.60;60.20;;;;;;5068381;28;20174;-64
2021/12/13 12:26:35;;;;;;;4.28;2.95;;;17.60;60.40;;;;;;5067703;28;20236;-65
2021/12/13 12:29:07;;;;;;;5.57;3.05;;;17.50;61.10;;;;;;5068427;28;20175;-65
2021/12/13 12:31:35;;;;;;;4.05;2.58;;;17.50;60.30;;;;;;5066809;28;20194;-65
2021/12/13 12:34:01;;;;;;;6.15;3.25;;;17.50;60.40;;;;;;5067698;28;20175;-67
2021/12/13 12:36:48;;;;;;;2.75;2.47;;;17.50;60.40;;;;;;5067815;28;20177;-66
2021/12/13 12:39:38;;;;;;;5.45;2.72;;;17.50;60.40;;;;;;5067277;28;20947;-66
2021/12/13 12:42:13;;;;;;;5.45;3.25;;;17.50;60.30;;;;;;5068094;28;20170;-66
2021/12/13 12:44:54;;;;;;;4.40;2.60;;;17.50;60.40;;;;;;5067884;28;20248;-66
2021/12/13 12:47:35;;;;;;;3.88;2.78;;;17.50;60.40;;;;;;5066930;28;20657;-67
2021/12/13 12:50:15;;;;;;;2.65;2.40;;;17.50;60.40;;;;;;5067939;28;20224;-67
2021/12/13 12:52:52;;;;;;;4.07;2.80;;;17.40;60.40;;;;;;5067455;28;20653;-66
2021/12/13 12:55:19;;;;;;;3.80;2.95;;;17.40;60.50;;;;;;5067038;28;20265;-66
2021/12/13 12:57:45;;;;;;;3.50;2.75;;;17.40;61.40;;;;;;5059008;28;20175;-67
2021/12/13 13:00:11;;;;;;;3.03;2.40;;;17.50;60.60;;;;;;5053814;28;20308;-66
2021/12/13 13:02:36;;;;;;;4.63;2.53;;;17.50;60.60;;;;;;5054048;28;20481;-66
2021/12/13 13:05:03;;;;;;;3.92;2.40;;;17.50;60.40;;;;;;5054465;28;20260;-67
2021/12/13 13:07:37;;;;;;;4.75;2.92;;;17.50;60.50;;;;;;5052207;28;20228;-65
2021/12/13 13:10:34;;;;;;;4.63;2.85;;;17.40;60.40;;;;;;5054426;28;20175;-67
2021/12/13 13:13:02;;;;;;;4.10;2.70;;;17.40;60.50;;;;;;5054301;28;20175;-66
2021/12/13 13:15:33;;;;;;;4.78;2.80;;;17.40;61.10;;;;;;5053135;28;20186;-66
2021/12/13 13:18:01;;;;;;;5.22;2.63;;;17.40;61.40;;;;;;5054031;28;20171;-66
2021/12/13 13:20:30;;;;;;;2.95;2.55;;;17.50;62.10;;;;;;5053566;28;20635;-67
2021/12/13 13:23:01;;;;;;;4.75;2.80;;;17.50;62.30;;;;;;5053545;28;20253;-65
2021/12/13 13:25:31;;;;;;;3.13;2.83;;;17.50;61.90;;;;;;5053819;28;20195;-66
2021/12/13 13:27:58;;;;;;;3.72;2.83;;;17.60;61.90;;;;;;5054020;28;20179;-65
2021/12/13 13:30:28;;;;;;;3.28;2.35;;;17.60;62.10;;;;;;5052724;28;20182;-66